White Bluff, Tennessee
Current Conditions -  °F | °C
As of 12:53 PM on Tuesday 21 Oct 2014 (Local Time) from KBNA Reporting Station
Few Clouds Few Clouds  
Wind Chill: 71°   Ceiling: Unl
Heat Index: 71°   Visibility: 10mi
Dew Point: 45°   Wind: 12mph
Humidity: 39%   Direction: 320°NW
Pressure: 30.05"   Gusts: 17mph
Location:  36.11°N, 87.22°W
Report Text: KBNA 211753Z 32010G15KT 10SM FEW055 22/07 A3005 RMK AO2 SLP173 T02170072 10222 20083 58008
Loading
Personal Weather Stations






























Interactive Weather Map
Tropical Storm Tracking
New forecast layout! Learn more

10-Day Weather Forecast

Advertisements
Track Severe Weather on mobile